Latest Weather Observations for Edinburgh

IDS60901

Issued at 6:51 am CDT Saturday 16 October 2021 (issued every 10 minutes, with the page automatically refreshed every 10 minutes)

About weather observations | Map of Adelaide area stations | Latest observations for Adelaide area | Other Formats
Station Details ID: 023083 Name: EDINBURGH RAAF Lat: -34.71 Lon: 138.62 Height: 16.54 m
Data from the previous 72 hours. | See also: Recent months at Edinburgh
Date/Time
CDT
Temp
°C
App
Temp
°C
Dew
Point
°C
Rel
Hum
%
Delta-T
°C
Wind Press
QNH
hPa
Press
MSL
hPa
Rain since
9am
mm
Dir  Spd
km/h
Gust
km/h
Spd
kts
Gust
kts
16/06:30am 12.7 7.8 4.9 59 3.6 SSW 20 28 11 15 1016.4 1016.3 0.0
16/06:00am 12.6 8.5 6.2 65 3.0 SW 17 24 9 13 1016.1 1016.0 0.0
16/05:30am 12.6 7.7 5.1 60 3.5 SSW 20 24 11 13 1015.8 1015.7 0.0
16/05:00am 12.8 7.6 5.7 62 3.3 SW 22 28 12 15 1015.7 1015.6 0.0
16/04:30am 12.7 8.3 6.5 66 3.0 SW 19 24 10 13 1015.6 1015.5 0.0
16/04:00am 12.7 8.1 6.7 67 2.9 SW 20 26 11 14 1015.7 1015.6 0.0
16/03:30am 12.9 8.4 6.9 67 2.9 SW 20 26 11 14 1015.7 1015.6 0.0
16/03:00am 13.0 8.5 6.8 66 3.0 SW 20 28 11 15 1015.6 1015.5 0.0
16/02:30am 13.0 8.1 6.8 66 3.0 SW 22 30 12 16 1015.8 1015.7 0.0
16/02:00am 13.0 8.7 6.8 66 3.0 SW 19 26 10 14 1015.9 1015.8 0.0
16/01:30am 12.9 7.9 6.3 64 3.1 SSW 22 33 12 18 1015.8 1015.7 0.0
16/01:00am 12.1 7.1 6.6 69 2.6 SW 22 30 12 16 1016.0 1015.9 0.0
16/12:30am 12.8 7.6 7.3 69 2.7 SSW 24 33 13 18 1016.2 1016.1 0.0
16/12:00am 13.1 7.3 8.0 71 2.5 SSW 28 35 15 19 1016.2 1016.1 0.0
 
Date/Time
CDT
Temp
°C
App
Temp
°C
Dew
Point
°C
Rel
Hum
%
Delta-T
°C
Wind Press
QNH
hPa
Press
MSL
hPa
Rain since
9am
mm
Dir  Spd
km/h
Gust
km/h
Spd
kts
Gust
kts
15/11:30pm 13.2 8.4 8.9 75 2.2 SSW 24 32 13 17 1016.0 1015.9 0.0
15/11:00pm 13.5 8.2 8.4 71 2.5 SW 26 33 14 18 1016.0 1015.9 0.0
15/10:30pm 13.9 9.0 8.3 69 2.8 SSW 24 30 13 16 1016.0 1015.9 0.0
15/10:00pm 13.7 9.0 7.9 68 2.9 SW 22 30 12 16 1016.0 1015.9 0.0
15/09:30pm 13.9 8.9 8.1 68 2.9 SSW 24 30 13 16 1015.9 1015.8 0.0
15/09:00pm 13.9 9.7 8.1 68 2.9 SW 20 28 11 15 1015.6 1015.5 0.0
15/08:30pm 14.0 9.4 8.0 67 3.0 SW 22 30 12 16 1015.3 1015.2 0.0
15/08:00pm 14.0 8.4 8.6 70 2.7 SW 28 37 15 20 1014.8 1014.7 0.0
15/07:30pm 14.1 8.9 8.9 71 2.6 SW 26 35 14 19 1014.4 1014.3 0.0
15/07:00pm 14.1 8.6 9.1 72 2.5 SW 28 39 15 21 1014.0 1013.9 0.0
15/06:30pm 15.4 8.4 8.4 63 3.5 SW 35 48 19 26 1013.6 1013.5 0.0
15/06:00pm 15.8 9.7 8.3 61 3.8 SW 30 39 16 21 1013.3 1013.2 0.0
15/05:30pm 16.3 9.6 8.0 58 4.2 SW 33 43 18 23 1013.0 1012.9 0.0
15/05:00pm 16.4 9.0 8.4 59 4.1 SW 37 44 20 24 1012.8 1012.7 0.0
15/04:30pm 16.5 9.5 9.9 65 3.5 SW 37 46 20 25 1012.6 1012.5 0.0
15/04:00pm 16.1 9.5 10.0 67 3.2 SW 35 48 19 26 1012.6 1012.5 0.0
15/03:30pm 17.2 10.8 9.4 60 4.1 SW 33 41 18 22 1012.4 1012.3 0.0
15/03:00pm 17.2 11.0 9.4 60 4.1 SW 32 41 17 22 1012.4 1012.3 0.0
15/02:30pm 16.8 10.2 8.5 58 4.2 SW 33 43 18 23 1012.3 1012.2 0.0
15/02:00pm 17.0 9.6 8.4 57 4.4 SW 37 48 20 26 1012.3 1012.2 0.0
15/01:30pm 16.9 10.0 8.8 59 4.2 SW 35 46 19 25 1012.3 1012.2 0.0
15/01:00pm 15.8 9.2 8.5 62 3.7 SW 33 43 18 23 1012.2 1012.1 0.0
15/12:30pm 16.0 9.6 8.5 61 3.8 SSW 32 43 17 23 1012.3 1012.2 0.0
15/12:00pm 15.9 8.6 8.9 63 3.6 SSW 37 44 20 24 1012.1 1012.0 0.0
15/11:30am 15.7 10.2 10.7 72 2.7 SW 30 44 16 24 1012.2 1012.1 0.0
15/11:00am 16.0 10.7 9.7 66 3.3 SSW 28 37 15 20 1012.2 1012.1 0.0
15/10:30am 14.3 8.3 8.5 68 2.9 SW 30 37 16 20 1012.2 1012.1 0.0
15/10:00am 14.7 9.7 8.0 64 3.3 S 24 33 13 18 1012.0 1011.9 0.0
15/09:30am 14.1 9.7 6.7 61 3.6 SSE 19 30 10 16 1011.5 1011.4 0.0
15/09:00am 13.3 9.4 7.1 66 3.0 SSW 17 24 9 13 1011.0 1010.9 24.0
15/08:30am 12.7 9.4 6.3 65 3.0 S 13 26 7 14 1010.1 1010.0 24.0
15/08:00am 12.1 9.2 8.0 76 2.0 S 13 19 7 10 1009.2 1009.1 24.0
15/07:30am 11.4 9.5 9.1 86 1.2 SSE 9 13 5 7 1007.7 1007.7 24.0
15/07:00am 10.7 8.5 9.5 92 0.6 SSE 11 15 6 8 1006.8 1006.8 24.0
15/06:30am 10.9 9.7 9.7 92 0.6 ESE 6 7 3 4 1005.6 1005.6 23.8
15/06:14am 11.1 10.0 9.9 92 0.6 ESE 6 9 3 5 1005.2 1005.2 23.8
15/06:11am 11.2 10.1 10.0 92 0.6 ESE 6 9 3 5 1005.2 1005.2 23.8
15/06:00am 11.4 9.8 10.1 92 0.7 ESE 9 15 5 8 1004.9 1004.9 23.8
15/05:51am 11.7 9.8 10.4 92 0.7 SE 11 17 6 9 1004.6 1004.6 23.6
15/05:34am 12.0 8.6 10.7 92 0.7 SW 19 28 10 15 1004.2 1004.2 23.2
15/05:30am 11.9 9.3 10.6 92 0.7 SW 15 26 8 14 1004.2 1004.2 23.2
15/05:00am 11.5 8.0 10.1 91 0.7 SSW 19 26 10 14 1004.2 1004.2 22.6
15/04:52am 11.6 7.1 10.0 90 0.8 SSW 24 35 13 19 1004.2 1004.2 22.2
15/04:51am 11.6 7.1 10.0 90 0.8 SSW 24 35 13 19 1004.2 1004.2 22.0
15/04:30am 11.8 8.3 10.2 90 0.8 SSW 19 24 10 13 1003.9 1003.9 21.8
15/04:00am 11.5 7.4 10.1 91 0.7 SW 22 30 12 16 1003.7 1003.7 21.6
15/03:55am 11.4 6.5 9.8 90 0.8 SW 26 37 14 20 1003.7 1003.7 21.6
15/03:53am 11.4 6.1 9.8 90 0.8 SW 28 39 15 21 1003.7 1003.7 21.6
15/03:34am 11.7 6.4 9.8 88 1.0 SSW 28 46 15 25 1003.6 1003.6 20.8
15/03:30am 12.2 7.4 10.4 89 0.9 SW 26 35 14 19 1003.5 1003.5 19.6
15/03:26am 12.2 7.8 10.4 89 0.9 SW 24 33 13 18 1003.6 1003.6 19.4
15/03:00am 12.5 6.5 10.0 85 1.3 SW 32 44 17 24 1003.6 1003.6 18.8
15/02:30am 12.8 6.9 10.3 85 1.3 SW 32 44 17 24 1003.5 1003.5 18.6
15/02:00am 12.2 4.5 10.1 87 1.1 SW 41 59 22 32 1003.6 1003.6 18.4
15/01:47am 12.7 6.8 10.6 87 1.1 SW 32 52 17 28 1003.5 1003.5 18.2
15/01:30am 13.1 6.3 10.5 84 1.4 SW 37 54 20 29 1003.5 1003.5 18.0
15/01:28am 13.0 6.5 10.5 85 1.3 SW 35 50 19 27 1003.6 1003.6 18.0
15/01:15am 12.6 8.9 11.5 93 0.6 SSW 22 43 12 23 1003.6 1003.6 18.0
15/01:00am 12.1 10.0 11.2 94 0.5 SSW 13 30 7 16 1003.9 1003.9 18.0
15/12:30am 9.9 6.4 8.7 92 0.6 NNE 17 20 9 11 1003.9 1003.9 14.2
15/12:26am 9.8 6.6 8.4 91 0.7 N 15 19 8 10 1004.2 1004.2 13.0
15/12:00am 10.2 7.4 8.5 89 0.8 NW 13 19 7 10 1005.1 1005.1 7.8
 
Date/Time
CDT
Temp
°C
App
Temp
°C
Dew
Point
°C
Rel
Hum
%
Delta-T
°C
Wind Press
QNH
hPa
Press
MSL
hPa
Rain since
9am
mm
Dir  Spd
km/h
Gust
km/h
Spd
kts
Gust
kts
14/11:44pm 10.5 6.9 8.4 87 1.0 W 17 28 9 15 1005.7 1005.7 7.0
14/11:30pm 10.9 7.5 9.2 89 0.9 WSW 17 26 9 14 1006.1 1006.1 6.0
14/11:29pm 10.9 7.5 9.2 89 0.8 WSW 17 26 9 14 1006.1 1006.1 5.8
14/11:05pm 11.0 7.3 9.3 89 0.9 W 19 24 10 13 1006.5 1006.5 3.6
14/11:00pm 10.8 6.4 8.9 88 0.9 WSW 22 37 12 20 1006.5 1006.5 2.4
14/10:30pm 11.2 7.0 7.3 77 1.9 WSW 19 41 10 22 1006.3 1006.3 1.0
14/10:00pm 13.1 8.7 6.7 65 3.1 SW 19 24 10 13 1006.7 1006.7 0.2
14/09:30pm 13.0 8.7 7.2 68 2.8 SW 19 28 10 15 1006.6 1006.6 0.2
14/09:00pm 13.1 8.0 7.8 70 2.6 SW 24 33 13 18 1006.4 1006.4 0.2
14/08:30pm 13.3 8.0 6.9 65 3.1 SW 24 32 13 17 1006.0 1006.0 0.2
14/08:00pm 13.5 8.1 6.4 62 3.4 SSW 24 39 13 21 1005.7 1005.7 0.2
14/07:30pm 13.9 7.4 6.7 62 3.5 SW 30 39 16 21 1005.2 1005.2 0.2
14/07:00pm 14.5 8.0 6.6 59 3.8 SW 30 39 16 21 1004.6 1004.6 0.2
14/06:30pm 14.7 9.3 8.0 64 3.4 SW 26 37 14 20 1004.1 1004.1 0.2
14/06:00pm 14.8 8.0 7.6 62 3.6 SW 33 43 18 23 1003.6 1003.6 0.2
14/05:30pm 15.2 9.0 7.7 61 3.8 SW 30 37 16 20 1003.2 1003.2 0.2
14/05:00pm 16.2 11.6 8.2 59 4.1 SSW 22 30 12 16 1003.0 1003.0 0.2
14/04:30pm 14.3 9.2 7.6 64 3.3 SSW 24 30 13 16 1002.9 1002.9 0.2
14/04:00pm 14.3 9.9 8.9 70 2.7 SSW 22 32 12 17 1002.8 1002.8 0.2
14/03:30pm 12.5 8.0 8.4 76 2.0 SW 22 28 12 15 1003.0 1003.0 0.2
14/03:00pm 13.5 9.1 7.5 67 3.0 SSW 20 28 11 15 1003.1 1003.1 0.2
14/02:30pm 16.0 11.9 7.7 58 4.2 SSW 19 26 10 14 1002.8 1002.8 0.2
14/02:00pm 14.9 11.5 5.7 54 4.4 SSW 13 20 7 11 1002.8 1002.8 0.2
14/01:30pm 16.1 13.3 6.8 54 4.6 SSW 11 17 6 9 1002.6 1002.6 0.2
14/01:00pm 14.5 13.4 5.3 54 4.3 CALM 0 6 0 3 1002.7 1002.7 0.2
14/12:30pm 13.9 11.2 5.8 58 3.9 NE 9 15 5 8 1002.6 1002.6 0.2
14/12:00pm 14.0 11.0 6.1 59 3.8 NNE 11 17 6 9 1002.6 1002.6 0.2
14/11:30am 13.3 9.9 5.9 61 3.5 NE 13 19 7 10 1002.8 1002.8 0.2
14/11:00am 13.1 9.3 7.5 69 2.7 NE 17 24 9 13 1002.8 1002.8 0.2
14/10:30am 12.5 8.2 8.0 74 2.2 NE 20 26 11 14 1002.8 1002.8 0.2
14/10:00am 12.2 8.7 8.7 79 1.7 NE 17 24 9 13 1002.9 1002.9 0.2
14/09:30am 10.3 7.4 8.2 87 1.0 NE 13 19 7 10 1003.0 1003.0 0.2
14/09:29am 10.2 7.3 8.1 87 1.0 NE 13 19 7 10 1003.0 1003.0 0.2
14/09:03am 9.8 5.2 8.1 89 0.8 NE 22 32 12 17 1003.0 1003.0 0.0
14/09:00am 9.8 5.7 7.9 88 0.9 NE 19 30 10 16 1002.9 1002.9 5.0
14/08:30am 9.8 5.5 7.7 87 1.0 NE 20 26 11 14 1002.7 1002.7 4.6
14/08:00am 10.0 7.0 7.6 85 1.1 ENE 13 22 7 12 1002.5 1002.5 3.8
14/07:30am 9.8 6.0 7.6 86 1.1 ENE 17 22 9 12 1002.1 1002.1 3.2
14/07:00am 9.6 5.8 7.4 86 1.0 ENE 17 24 9 13 1002.0 1002.0 2.8
14/06:30am 9.7 5.9 7.5 86 1.1 ENE 17 24 9 13 1001.8 1001.8 2.2
14/06:00am 9.5 6.0 7.4 87 1.0 ENE 15 19 8 10 1001.8 1001.8 1.8
14/05:30am 9.5 5.7 7.4 87 1.0 ENE 17 20 9 11 1001.9 1001.9 1.0
14/05:00am 9.6 5.7 7.2 85 1.1 NNE 17 24 9 13 1002.2 1002.2 0.6
14/04:30am 10.1 6.0 6.3 77 1.8 NE 17 20 9 11 1002.0 1002.0 0.2
14/04:00am 10.2 5.6 6.4 77 1.8 NNE 20 32 11 17 1002.2 1002.2 0.2
14/03:30am 9.9 5.5 6.6 80 1.6 NE 19 24 10 13 1002.4 1002.4 0.2
14/03:00am 10.0 5.8 5.6 74 2.0 NE 17 20 9 11 1002.9 1002.9 0.2
14/02:30am 10.2 5.9 5.4 72 2.2 NE 17 20 9 11 1003.3 1003.3 0.2
14/02:00am 10.3 6.0 5.3 71 2.3 NE 17 20 9 11 1003.7 1003.7 0.2
14/01:30am 10.4 6.1 5.2 70 2.4 NE 17 20 9 11 1004.3 1004.3 0.2
14/01:00am 10.6 6.2 4.9 68 2.6 NNE 17 20 9 11 1004.7 1004.7 0.2
14/12:30am 10.6 6.2 4.7 67 2.7 NE 17 20 9 11 1004.9 1004.9 0.2
14/12:00am 10.4 6.4 5.0 69 2.5 NE 15 19 8 10 1005.1 1005.1 0.2
 
Date/Time
CDT
Temp
°C
App
Temp
°C
Dew
Point
°C
Rel
Hum
%
Delta-T
°C
Wind Press
QNH
hPa
Press
MSL
hPa
Rain since
9am
mm
Dir  Spd
km/h
Gust
km/h
Spd
kts
Gust
kts
13/11:30pm 10.0 6.4 5.0 71 2.3 NE 13 17 7 9 1005.4 1005.4 0.2
13/11:00pm 10.1 6.5 4.9 70 2.3 NE 13 17 7 9 1005.6 1005.6 0.2
13/10:30pm 9.9 6.4 5.3 73 2.1 NE 13 15 7 8 1005.9 1005.9 0.2
13/10:00pm 9.4 6.0 5.8 78 1.6 NE 13 17 7 9 1006.3 1006.3 0.2
13/09:30pm 9.3 6.6 5.5 77 1.7 NE 9 11 5 6 1006.3 1006.3 0.2
13/09:00pm 9.8 7.3 4.6 70 2.3 NNE 7 11 4 6 1006.2 1006.2 0.2
13/08:30pm 10.7 8.5 5.3 69 2.5 NW 6 7 3 4 1006.3 1006.3 0.2
13/08:00pm 10.4 7.5 4.8 68 2.5 NW 9 11 5 6 1006.3 1006.3 0.2
13/07:30pm 11.8 8.2 5.2 64 3.0 WNW 13 17 7 9 1006.2 1006.2 0.2
13/07:00pm 13.2 8.2 4.6 56 4.0 WNW 20 28 11 15 1006.3 1006.3 0.2
13/06:30pm 14.6 9.1 4.0 49 4.9 WNW 22 33 12 18 1006.1 1006.1 0.2
13/06:00pm 15.2 8.7 2.7 43 5.6 WNW 26 35 14 19 1006.1 1006.1 0.2
13/05:30pm 15.4 8.3 5.3 51 4.8 WNW 32 39 17 21 1006.0 1006.0 0.2
13/05:00pm 16.7 9.9 5.0 46 5.6 W 30 43 16 23 1005.6 1005.6 0.2
13/04:30pm 15.7 8.2 3.2 43 5.7 W 32 43 17 23 1005.5 1005.5 0.2
13/04:00pm 16.7 10.0 3.4 41 6.1 W 28 43 15 23 1005.6 1005.6 0.2
13/03:30pm 16.6 8.9 3.3 41 6.1 W 33 46 18 25 1005.8 1005.8 0.2
13/03:01pm 17.1 9.2 4.4 43 6.0 WNW 35 54 19 29 1005.9 1005.9 0.2
13/03:00pm 16.9 8.7 4.9 45 5.7 WNW 37 54 20 29 1005.9 1005.9 0.2
13/02:31pm 16.7 8.5 2.7 39 6.4 WNW 35 54 19 29 1005.7 1005.7 0.2
13/02:30pm 16.6 8.4 2.6 39 6.4 WNW 35 46 19 25 1005.7 1005.7 0.2
13/02:00pm 14.5 7.4 3.6 48 5.0 W 30 54 16 29 1006.0 1006.0 0.2
13/01:30pm 15.8 8.3 3.3 43 5.7 W 32 41 17 22 1006.2 1006.2 0.2
13/01:00pm 16.2 9.2 4.3 45 5.6 WNW 30 44 16 24 1006.2 1006.2 0.0
13/12:30pm 15.5 8.0 4.6 48 5.1 W 33 46 18 25 1006.5 1006.5 0.0
13/12:00pm 14.9 9.0 5.7 54 4.4 WNW 26 35 14 19 1006.8 1006.8 0.0
13/11:30am 14.9 9.1 6.2 56 4.2 WNW 26 37 14 20 1006.9 1006.9 0.0
13/11:00am 14.6 8.3 5.9 56 4.2 WNW 28 39 15 21 1006.9 1006.9 0.0
13/10:30am 14.7 7.7 7.0 60 3.8 WNW 33 43 18 23 1007.0 1007.0 0.0
13/10:00am 14.0 7.9 6.6 61 3.6 NW 28 39 15 21 1007.0 1007.0 0.0
13/09:30am 13.3 7.6 6.9 65 3.1 NW 26 37 14 20 1007.0 1007.0 0.0
13/09:00am 11.3 7.4 8.5 83 1.4 NW 19 26 10 14 1007.0 1007.0 1.0
13/08:30am 11.6 7.7 9.5 87 1.1 N 20 26 11 14 1006.9 1006.9 0.8
13/08:00am 11.1 7.3 9.2 88 0.9 N 19 24 10 13 1006.9 1006.9 0.8
13/07:30am 11.0 8.3 9.1 88 0.9 N 13 20 7 11 1006.9 1006.9 0.8
13/07:00am 11.0 8.3 8.9 87 1.0 N 13 17 7 9 1006.7 1006.7 0.8

Latest Capital City Observations: Canberra | Sydney | Melbourne | Brisbane | Adelaide | Perth | Hobart | Darwin

Other formats

Comma delimited format used in spreadsheet applications
http://www.bom.gov.au/fwo/IDS60901/IDS60901.95676.axf

JavaScript Object Notation format (JSON) in row-major order
http://www.bom.gov.au/fwo/IDS60901/IDS60901.95676.json

Data quality

Most of these data are generated automatically and are frequently updated. Quality checks on data are not normally performed. It is possible for incorrect values to appear. Refer to information at About Latest Weather Observations and please check the disclaimer before using these data.